SBKG/CPV METAR and TAF weather

Enter ICAO airport designator
Station Type Date Time Source
SBKG METAR 2021/09/16 11:00 UTC NOAA

SBKG 161100Z 13012KT 9999 BKN017 24/19 Q1020


Station Type Date Time Source
SBKG Decoded METAR 2021/09/16 11:00 UTC NOAA

Campina Grande, Brazil (SBKG) 07-13S 035-53W
Sep 16, 2021 - 07:00 AM EDT / 2021.09.16 1100 UTC
Wind: from the SE (130 degrees) at 14 MPH (12 KT):0
Visibility: greater than 7 mile(s):0
Sky conditions: mostly cloudy
Temperature: 75 F (24 C)
Dew Point: 66 F (19 C)
Relative Humidity: 73%
Pressure (altimeter): 30.12 in. Hg (1020 hPa)
ob: SBKG 161100Z 13012KT 9999 BKN017 24/19 Q1020
cycle: 11

Station Type Date Time Source
SBKG TAF 2021/09/16 06:27 UTC NOAA

TAF SBKG 160300Z 1606/1618 12010KT 9999 SCT017 TN22/1607Z TX30/1617Z
RMK PHD

Example: see airport list